Time;durP1;ratioP1;P1;durP2;ratioP2;P2;SDS_P1;SDS_P2;PMS_P1;PMS_P2;Temp;Humidity;BMP_temperature;BMP_pressure;BME280_temperature;BME280_humidity;BME280_pressure;Samples;Min_cycle;Max_cycle;Signal;HPM_P1;HPM_P2
2022/09/30 00:01:45;;;;;;;0.10;0.10;;;;;;;;;;5043972;28;20258;-73
2022/09/30 00:04:13;;;;;;;0.10;0.10;;;;;;;;;;5045275;28;20302;-73
2022/09/30 00:06:40;;;;;;;1.60;1.60;;;;;;;;;;5044643;28;20351;-72
2022/09/30 00:09:08;;;;;;;0.10;0.10;;;;;;;;;;5045420;28;20207;-73
2022/09/30 00:11:35;;;;;;;0.10;0.10;;;;;;;;;;5043718;28;20253;-72
2022/09/30 00:14:01;;;;;;;0.10;0.10;;;;;;;;;;5046403;28;20205;-73
2022/09/30 00:16:30;;;;;;;0.87;0.87;;;;;;;;;;5043034;28;20245;-73
2022/09/30 00:18:56;;;;;;;0.10;0.10;;;;;;;;;;5046732;28;20230;-72
2022/09/30 00:21:23;;;;;;;0.10;0.10;;;;;;;;;;5043133;28;20243;-72
2022/09/30 00:23:49;;;;;;;0.10;0.10;;;;;;;;;;5051505;28;20211;-72
2022/09/30 00:26:18;;;;;;;0.10;0.10;;;;;;;;;;5045233;28;20294;-72
2022/09/30 00:28:45;;;;;;;0.10;0.10;;;;;;;;;;5052082;28;20208;-72
2022/09/30 00:31:12;;;;;;;0.10;0.10;;;;;;;;;;5044645;28;20514;-71
2022/09/30 00:33:38;;;;;;;0.10;0.10;;;;;;;;;;5052885;28;20233;-72
2022/09/30 00:36:05;;;;;;;0.10;0.10;;;;;;;;;;5043641;28;20473;-74
2022/09/30 00:38:31;;;;;;;0.10;0.10;;;;;;;;;;5053531;28;20205;-73
2022/09/30 00:40:58;;;;;;;0.10;0.10;;;;;;;;;;5042541;28;20341;-72
2022/09/30 00:43:41;;;;;;;0.10;0.10;;;;;;;;;;5054243;28;20200;-72
2022/09/30 00:46:08;;;;;;;0.10;0.10;;;;;;;;;;5044016;28;20311;-72
2022/09/30 00:48:36;;;;;;;0.10;0.10;;;;;;;;;;5052893;28;20212;-73
2022/09/30 00:51:03;;;;;;;0.17;0.17;;;;;;;;;;5043055;28;20491;-72
2022/09/30 00:53:33;;;;;;;0.10;0.10;;;;;;;;;;5053810;28;20247;-73
2022/09/30 00:56:01;;;;;;;0.10;0.10;;;;;;;;;;5042614;28;20303;-73
2022/09/30 00:58:29;;;;;;;0.10;0.10;;;;;;;;;;5053545;28;20286;-72
2022/09/30 01:00:58;;;;;;;0.10;0.10;;;;;;;;;;5041980;28;20322;-72
2022/09/30 01:03:25;;;;;;;0.10;0.10;;;;;;;;;;5054144;28;20199;-73
2022/09/30 01:05:52;;;;;;;0.10;0.10;;;;;;;;;;5041384;28;20243;-77
2022/09/30 01:08:20;;;;;;;0.10;0.10;;;;;;;;;;5054893;28;20214;-78
2022/09/30 01:10:46;;;;;;;0.10;0.10;;;;;;;;;;5040821;28;20275;-77
2022/09/30 01:13:13;;;;;;;0.10;0.10;;;;;;;;;;5054886;28;20541;-78
2022/09/30 01:15:47;;;;;;;2.53;2.50;;;;;;;;;;5039786;28;20440;-78
2022/09/30 01:18:17;;;;;;;0.10;0.10;;;;;;;;;;5055069;28;20193;-78
2022/09/30 01:20:58;;;;;;;0.10;0.10;;;;;;;;;;5039977;28;20246;-76
2022/09/30 01:23:38;;;;;;;0.13;0.13;;;;;;;;;;5053903;28;20203;-78
2022/09/30 01:26:15;;;;;;;0.10;0.10;;;;;;;;;;5043156;28;20239;-78
2022/09/30 01:29:01;;;;;;;0.10;0.10;;;;;;;;;;5051180;28;20195;-79
2022/09/30 01:31:41;;;;;;;0.10;0.10;;;;;;;;;;5036495;28;20262;-77
2022/09/30 01:34:15;;;;;;;0.10;0.10;;;;;;;;;;5048017;28;20383;-78
2022/09/30 01:36:47;;;;;;;0.10;0.10;;;;;;;;;;5047177;28;20243;-77
2022/09/30 01:39:19;;;;;;;0.20;0.20;;;;;;;;;;5047160;28;20264;-77
2022/09/30 01:41:51;;;;;;;0.10;0.10;;;;;;;;;;5047568;28;20245;-78
2022/09/30 01:44:20;;;;;;;0.10;0.10;;;;;;;;;;5046704;28;20238;-77
2022/09/30 01:46:51;;;;;;;0.10;0.10;;;;;;;;;;5047637;28;20240;-77
2022/09/30 01:49:20;;;;;;;0.10;0.10;;;;;;;;;;5046789;28;20271;-78
2022/09/30 01:51:52;;;;;;;0.10;0.10;;;;;;;;;;5047558;28;20240;-77
2022/09/30 01:54:21;;;;;;;0.10;0.10;;;;;;;;;;5046500;28;20261;-77
2022/09/30 01:56:48;;;;;;;0.20;0.20;;;;;;;;;;5047695;28;20471;-76
2022/09/30 01:59:16;;;;;;;0.10;0.10;;;;;;;;;;5046282;28;20238;-78
2022/09/30 02:01:45;;;;;;;0.10;0.10;;;;;;;;;;5043787;28;20241;-78
2022/09/30 02:04:18;;;;;;;0.10;0.10;;;;;;;;;;5047191;28;20213;-78
2022/09/30 02:06:47;;;;;;;0.10;0.10;;;;;;;;;;5046833;28;20257;-77
2022/09/30 02:09:14;;;;;;;0.10;0.10;;;;;;;;;;5046917;28;20231;-78
2022/09/30 02:11:41;;;;;;;0.10;0.10;;;;;;;;;;5046398;28;20323;-78
2022/09/30 02:14:10;;;;;;;0.10;0.10;;;;;;;;;;5047175;28;20235;-78
2022/09/30 02:16:38;;;;;;;0.10;0.10;;;;;;;;;;5045666;28;20241;-77
2022/09/30 02:19:10;;;;;;;0.10;0.10;;;;;;;;;;5047740;28;20398;-78
2022/09/30 02:21:40;;;;;;;0.10;0.10;;;;;;;;;;5045820;28;20436;-78
2022/09/30 02:24:08;;;;;;;0.10;0.10;;;;;;;;;;5047489;28;20242;-78
2022/09/30 02:26:37;;;;;;;0.10;0.10;;;;;;;;;;5035652;28;20240;-78
2022/09/30 02:29:07;;;;;;;0.10;0.10;;;;;;;;;;5047713;28;20206;-78
2022/09/30 02:31:36;;;;;;;0.10;0.10;;;;;;;;;;5045077;28;20249;-77
2022/09/30 02:34:04;;;;;;;9.40;8.80;;;;;;;;;;5047869;28;20553;-78
2022/09/30 02:36:33;;;;;;;0.10;0.10;;;;;;;;;;5044837;28;20457;-78
2022/09/30 02:39:02;;;;;;;0.10;0.10;;;;;;;;;;5048025;28;20207;-77
2022/09/30 02:41:31;;;;;;;0.10;0.10;;;;;;;;;;5044414;28;20249;-77
2022/09/30 02:43:58;;;;;;;0.10;0.10;;;;;;;;;;5046981;28;20416;-78
2022/09/30 02:46:27;;;;;;;0.10;0.10;;;;;;;;;;5043532;28;20274;-77
2022/09/30 02:48:59;;;;;;;0.10;0.10;;;;;;;;;;5048592;28;20288;-77
2022/09/30 02:51:32;;;;;;;0.10;0.10;;;;;;;;;;5043561;28;20450;-77
2022/09/30 02:54:03;;;;;;;0.10;0.10;;;;;;;;;;5047540;28;20219;-79
2022/09/30 02:56:32;;;;;;;0.20;0.20;;;;;;;;;;5044205;28;20256;-77
2022/09/30 02:58:59;;;;;;;0.10;0.10;;;;;;;;;;5047282;28;20230;-77
2022/09/30 03:01:25;;;;;;;0.13;0.13;;;;;;;;;;5043744;28;20313;-77
2022/09/30 03:03:53;;;;;;;0.10;0.10;;;;;;;;;;5048147;28;20198;-78
2022/09/30 03:06:20;;;;;;;0.10;0.10;;;;;;;;;;5042814;28;20440;-78
2022/09/30 03:08:47;;;;;;;0.10;0.10;;;;;;;;;;5049123;28;20214;-78
2022/09/30 03:11:17;;;;;;;0.10;0.10;;;;;;;;;;5041862;28;20244;-78
2022/09/30 03:13:54;;;;;;;0.10;0.10;;;;;;;;;;5049147;28;20236;-78
2022/09/30 03:16:24;;;;;;;0.30;0.30;;;;;;;;;;5042534;28;20288;-78
2022/09/30 03:18:57;;;;;;;0.10;0.10;;;;;;;;;;5048849;28;20528;-79
2022/09/30 03:21:30;;;;;;;0.10;0.10;;;;;;;;;;5043146;28;20247;-78
2022/09/30 03:24:07;;;;;;;0.10;0.10;;;;;;;;;;5047560;28;20486;-78
2022/09/30 03:26:41;;;;;;;0.10;0.10;;;;;;;;;;5044175;28;20396;-79
2022/09/30 03:29:10;;;;;;;0.10;0.10;;;;;;;;;;5045924;28;20199;-78
2022/09/30 03:31:40;;;;;;;0.20;0.20;;;;;;;;;;5044476;28;20243;-77
2022/09/30 03:34:14;;;;;;;0.10;0.10;;;;;;;;;;5045853;28;20221;-77
2022/09/30 03:36:42;;;;;;;0.10;0.10;;;;;;;;;;5044670;28;20251;-78
2022/09/30 03:39:11;;;;;;;0.10;0.10;;;;;;;;;;5046001;28;20206;-78
2022/09/30 03:41:41;;;;;;;0.10;0.10;;;;;;;;;;5044517;28;20241;-77
2022/09/30 03:44:10;;;;;;;0.10;0.10;;;;;;;;;;5046339;28;20390;-77
2022/09/30 03:46:40;;;;;;;0.10;0.10;;;;;;;;;;5044134;28;20310;-77
2022/09/30 03:49:09;;;;;;;0.10;0.10;;;;;;;;;;5045659;28;20203;-78
2022/09/30 03:51:37;;;;;;;0.10;0.10;;;;;;;;;;5044047;28;20245;-76
2022/09/30 03:54:06;;;;;;;0.10;0.10;;;;;;;;;;5046093;28;20408;-77
2022/09/30 03:56:33;;;;;;;0.10;0.10;;;;;;;;;;5042920;28;20483;-76
2022/09/30 03:59:00;;;;;;;0.10;0.10;;;;;;;;;;5047026;28;20225;-78
2022/09/30 04:01:27;;;;;;;0.20;0.20;;;;;;;;;;5041855;28;20291;-76
2022/09/30 04:03:54;;;;;;;0.10;0.10;;;;;;;;;;5047273;28;20206;-78
2022/09/30 04:06:21;;;;;;;0.10;0.10;;;;;;;;;;5041169;28;20242;-77
2022/09/30 04:08:47;;;;;;;0.10;0.10;;;;;;;;;;5048392;28;20312;-77
2022/09/30 04:11:14;;;;;;;0.10;0.10;;;;;;;;;;5041061;28;20240;-78
2022/09/30 04:13:40;;;;;;;0.10;0.10;;;;;;;;;;5049104;28;20438;-78
2022/09/30 04:16:08;;;;;;;0.10;0.10;;;;;;;;;;5040170;28;20244;-78
2022/09/30 04:18:35;;;;;;;0.10;0.10;;;;;;;;;;5049787;28;20365;-78
2022/09/30 04:21:05;;;;;;;0.10;0.10;;;;;;;;;;5039237;28;20240;-77
2022/09/30 04:23:33;;;;;;;0.10;0.10;;;;;;;;;;5049710;28;20207;-76
2022/09/30 04:26:01;;;;;;;0.10;0.10;;;;;;;;;;5039042;28;20384;-79
2022/09/30 04:28:27;;;;;;;0.10;0.10;;;;;;;;;;5050354;28;20335;-78
2022/09/30 04:30:53;;;;;;;0.10;0.10;;;;;;;;;;5038182;28;20347;-78
2022/09/30 04:33:21;;;;;;;0.10;0.10;;;;;;;;;;5051040;28;20232;-77
2022/09/30 04:35:47;;;;;;;0.17;0.17;;;;;;;;;;5037332;28;20436;-77
2022/09/30 04:38:14;;;;;;;0.10;0.10;;;;;;;;;;5051887;28;20277;-77
2022/09/30 04:40:40;;;;;;;0.10;0.10;;;;;;;;;;5036476;28;20259;-78
2022/09/30 04:43:06;;;;;;;0.10;0.10;;;;;;;;;;5052983;28;20391;-78
2022/09/30 04:45:33;;;;;;;0.10;0.10;;;;;;;;;;5035448;28;20250;-77
2022/09/30 04:47:59;;;;;;;0.10;0.10;;;;;;;;;;5053494;28;20210;-78
2022/09/30 04:50:27;;;;;;;0.10;0.10;;;;;;;;;;5034550;28;20245;-78
2022/09/30 04:52:54;;;;;;;0.10;0.10;;;;;;;;;;5054741;28;20255;-77
2022/09/30 04:55:21;;;;;;;0.10;0.10;;;;;;;;;;5033898;28;20213;-78
2022/09/30 04:57:49;;;;;;;0.10;0.10;;;;;;;;;;5055154;28;20204;-78
2022/09/30 05:00:15;;;;;;;0.10;0.10;;;;;;;;;;5032810;28;20213;-77
2022/09/30 05:02:42;;;;;;;0.10;0.10;;;;;;;;;;5056028;28;20212;-77
2022/09/30 05:05:09;;;;;;;0.10;0.10;;;;;;;;;;5032382;28;20232;-77
2022/09/30 05:07:36;;;;;;;0.10;0.10;;;;;;;;;;5057986;28;20205;-77
2022/09/30 05:10:03;;;;;;;0.10;0.10;;;;;;;;;;5045411;28;20256;-77
2022/09/30 05:12:30;;;;;;;0.10;0.10;;;;;;;;;;5034336;28;20311;-78
2022/09/30 05:14:57;;;;;;;0.10;0.10;;;;;;;;;;5045459;28;20229;-78
2022/09/30 05:17:23;;;;;;;0.10;0.10;;;;;;;;;;5050717;28;20243;-77
2022/09/30 05:19:49;;;;;;;0.10;0.10;;;;;;;;;;5045220;28;20266;-78
2022/09/30 05:22:16;;;;;;;0.20;0.20;;;;;;;;;;5050585;28;20237;-78
2022/09/30 05:24:43;;;;;;;0.10;0.10;;;;;;;;;;5045053;28;20295;-77
2022/09/30 05:27:10;;;;;;;0.10;0.10;;;;;;;;;;5050336;28;20241;-78
2022/09/30 05:29:36;;;;;;;0.10;0.10;;;;;;;;;;5045223;28;20306;-79
2022/09/30 05:32:02;;;;;;;0.10;0.10;;;;;;;;;;5049848;28;20302;-77
2022/09/30 05:34:29;;;;;;;0.10;0.10;;;;;;;;;;5045565;28;20442;-78
2022/09/30 05:36:55;;;;;;;0.10;0.10;;;;;;;;;;5048708;28;20305;-77
2022/09/30 05:39:22;;;;;;;0.10;0.10;;;;;;;;;;5046159;28;20570;-78
2022/09/30 05:41:49;;;;;;;0.20;0.20;;;;;;;;;;5047942;28;20448;-77
2022/09/30 05:44:15;;;;;;;0.10;0.10;;;;;;;;;;5046810;28;20208;-78
2022/09/30 05:46:43;;;;;;;0.10;0.10;;;;;;;;;;5047082;28;20246;-79
2022/09/30 05:49:09;;;;;;;0.10;0.10;;;;;;;;;;5047805;28;20213;-78
2022/09/30 05:51:35;;;;;;;0.10;0.10;;;;;;;;;;5046109;28;20247;-77
2022/09/30 05:54:02;;;;;;;0.10;0.10;;;;;;;;;;5048393;28;20446;-77
2022/09/30 05:56:28;;;;;;;0.10;0.10;;;;;;;;;;5044962;28;20244;-78
2022/09/30 05:58:56;;;;;;;0.10;0.10;;;;;;;;;;5049141;28;20423;-77
2022/09/30 06:01:22;;;;;;;0.10;0.10;;;;;;;;;;5043555;28;20309;-77
2022/09/30 06:03:48;;;;;;;0.10;0.10;;;;;;;;;;5050282;28;20208;-77
2022/09/30 06:06:15;;;;;;;0.10;0.10;;;;;;;;;;5043274;28;20246;-78
2022/09/30 06:08:42;;;;;;;0.10;0.10;;;;;;;;;;5050608;28;20306;-77
2022/09/30 06:11:10;;;;;;;0.10;0.10;;;;;;;;;;5042356;28;20614;-77
2022/09/30 06:13:37;;;;;;;0.10;0.10;;;;;;;;;;5051117;28;20271;-77
2022/09/30 06:16:05;;;;;;;0.10;0.10;;;;;;;;;;5041814;28;20246;-77
2022/09/30 06:18:31;;;;;;;0.10;0.10;;;;;;;;;;5052061;28;20206;-76
2022/09/30 06:20:58;;;;;;;0.10;0.10;;;;;;;;;;5040838;28;20601;-77
2022/09/30 06:23:25;;;;;;;0.10;0.10;;;;;;;;;;5052953;28;20207;-77
2022/09/30 06:25:51;;;;;;;0.10;0.10;;;;;;;;;;5039757;28;20453;-78
2022/09/30 06:28:18;;;;;;;0.10;0.10;;;;;;;;;;5053542;28;20213;-78
2022/09/30 06:30:45;;;;;;;0.10;0.10;;;;;;;;;;5038937;28;20248;-71
2022/09/30 06:33:13;;;;;;;0.10;0.10;;;;;;;;;;5054146;28;20214;-71
2022/09/30 06:35:41;;;;;;;0.10;0.10;;;;;;;;;;5038157;28;20246;-71
2022/09/30 06:38:07;;;;;;;0.10;0.10;;;;;;;;;;5054253;28;20202;-70
2022/09/30 06:40:34;;;;;;;6.10;5.70;;;;;;;;;;5037293;28;20285;-70
2022/09/30 06:43:00;;;;;;;0.10;0.10;;;;;;;;;;5055350;28;20281;-69
2022/09/30 06:45:27;;;;;;;0.10;0.10;;;;;;;;;;5036417;28;20244;-71
2022/09/30 06:47:56;;;;;;;0.10;0.10;;;;;;;;;;5056296;28;20205;-71
2022/09/30 06:50:24;;;;;;;0.10;0.10;;;;;;;;;;5035672;28;20265;-71
2022/09/30 06:52:51;;;;;;;0.10;0.10;;;;;;;;;;5056266;28;20233;-70
2022/09/30 06:55:17;;;;;;;0.10;0.10;;;;;;;;;;5034991;28;20361;-70
2022/09/30 06:57:46;;;;;;;0.10;0.10;;;;;;;;;;5057102;28;20281;-70
2022/09/30 07:00:16;;;;;;;0.10;0.10;;;;;;;;;;5034077;28;20382;-71
2022/09/30 07:02:42;;;;;;;0.20;0.20;;;;;;;;;;5057508;28;20210;-71
2022/09/30 07:05:09;;;;;;;0.10;0.10;;;;;;;;;;5033433;28;20208;-71
2022/09/30 07:07:36;;;;;;;0.10;0.10;;;;;;;;;;5058272;28;20253;-78
2022/09/30 07:10:03;;;;;;;0.10;0.10;;;;;;;;;;5043088;28;20209;-77
2022/09/30 07:12:30;;;;;;;0.10;0.10;;;;;;;;;;5032069;28;20454;-76
2022/09/30 07:14:58;;;;;;;0.10;0.10;;;;;;;;;;5043081;28;20230;-77
2022/09/30 07:17:25;;;;;;;0.10;0.10;;;;;;;;;;5048517;28;20389;-77
2022/09/30 07:19:51;;;;;;;0.10;0.10;;;;;;;;;;5043311;28;20279;-76
2022/09/30 07:22:28;;;;;;;0.10;0.10;;;;;;;;;;5048388;28;20240;-77
2022/09/30 07:24:56;;;;;;;0.10;0.10;;;;;;;;;;5043258;28;20198;-78
2022/09/30 07:27:24;;;;;;;0.10;0.10;;;;;;;;;;5048400;28;20241;-77
2022/09/30 07:29:50;;;;;;;0.10;0.10;;;;;;;;;;5042718;28;20212;-77
2022/09/30 07:32:18;;;;;;;0.10;0.10;;;;;;;;;;5048222;28;20239;-77
2022/09/30 07:34:44;;;;;;;0.10;0.10;;;;;;;;;;5042664;28;20249;-78
2022/09/30 07:37:13;;;;;;;0.10;0.10;;;;;;;;;;5048348;28;20247;-77
2022/09/30 07:39:39;;;;;;;0.10;0.10;;;;;;;;;;5042755;28;20217;-76
2022/09/30 07:42:06;;;;;;;0.10;0.10;;;;;;;;;;5048270;28;20299;-77
2022/09/30 07:44:35;;;;;;;0.10;0.10;;;;;;;;;;5042586;28;20208;-77
2022/09/30 07:47:02;;;;;;;0.10;0.10;;;;;;;;;;5047574;28;20253;-78
2022/09/30 07:49:28;;;;;;;0.10;0.10;;;;;;;;;;5042813;28;20401;-77
2022/09/30 07:51:56;;;;;;;0.10;0.10;;;;;;;;;;5046488;28;20444;-77
2022/09/30 07:54:23;;;;;;;0.10;0.10;;;;;;;;;;5043805;28;20274;-77
2022/09/30 07:56:50;;;;;;;0.10;0.10;;;;;;;;;;5045911;28;20246;-78
2022/09/30 07:59:17;;;;;;;0.10;0.10;;;;;;;;;;5044511;28;20232;-72
2022/09/30 08:01:45;;;;;;;0.10;0.10;;;;;;;;;;5045104;28;20274;-72
2022/09/30 08:04:12;;;;;;;0.10;0.10;;;;;;;;;;5045396;28;20501;-72
2022/09/30 08:06:40;;;;;;;0.10;0.10;;;;;;;;;;5044237;28;20241;-72
2022/09/30 08:09:07;;;;;;;0.10;0.10;;;;;;;;;;5045741;28;20430;-72
2022/09/30 08:11:34;;;;;;;0.10;0.10;;;;;;;;;;5043058;28;20388;-72
2022/09/30 08:14:00;;;;;;;0.00;0.00;;;;;;;;;;5046827;28;20234;-72
2022/09/30 08:16:27;;;;;;;0.10;0.10;;;;;;;;;;5042517;28;20238;-72
2022/09/30 08:18:55;;;;;;;0.10;0.10;;;;;;;;;;5046931;28;20203;-77
2022/09/30 08:21:22;;;;;;;0.10;0.10;;;;;;;;;;5041885;28;20301;-77
2022/09/30 08:23:48;;;;;;;0.10;0.10;;;;;;;;;;5047804;28;20237;-78
2022/09/30 08:26:15;;;;;;;0.10;0.10;;;;;;;;;;5040825;28;20249;-78
2022/09/30 08:28:42;;;;;;;0.10;0.10;;;;;;;;;;5048598;28;20436;-78
2022/09/30 08:31:09;;;;;;;0.10;0.10;;;;;;;;;;5039770;28;20242;-78
2022/09/30 08:33:36;;;;;;;0.10;0.10;;;;;;;;;;5048955;28;20215;-77
2022/09/30 08:36:05;;;;;;;0.10;0.10;;;;;;;;;;5038852;28;20394;-79
2022/09/30 08:38:32;;;;;;;0.10;0.10;;;;;;;;;;5049506;28;20218;-78
2022/09/30 08:41:03;;;;;;;0.10;0.10;;;;;;;;;;5038634;28;20419;-78
2022/09/30 08:43:33;;;;;;;0.10;0.10;;;;;;;;;;5052981;28;20208;-78
2022/09/30 08:46:06;;;;;;;0.10;0.10;;;;;;;;;;5042485;28;20267;-77
2022/09/30 08:48:41;;;;;;;0.10;0.10;;;;;;;;;;5053464;28;20265;-76
2022/09/30 08:51:16;;;;;;;0.10;0.10;;;;;;;;;;5043589;28;20426;-78
2022/09/30 08:53:43;;;;;;;0.10;0.10;;;;;;;;;;5052393;28;20544;-77
2022/09/30 08:56:12;;;;;;;0.10;0.10;;;;;;;;;;5044293;28;20250;-78
2022/09/30 08:58:40;;;;;;;0.10;0.10;;;;;;;;;;5052410;28;20229;-78
2022/09/30 09:01:13;;;;;;;0.10;0.10;;;;;;;;;;5043505;28;20246;-78
2022/09/30 09:03:40;;;;;;;0.03;0.03;;;;;;;;;;5052133;28;20196;-78
2022/09/30 09:06:12;;;;;;;0.10;0.10;;;;;;;;;;5043231;28;20341;-79
2022/09/30 09:08:48;;;;;;;0.10;0.10;;;;;;;;;;5052288;28;20196;-77
2022/09/30 09:11:19;;;;;;;0.00;0.00;;;;;;;;;;5044614;28;20248;-78
2022/09/30 09:13:50;;;;;;;0.10;0.10;;;;;;;;;;5051391;28;20260;-77
2022/09/30 09:16:20;;;;;;;0.10;0.10;;;;;;;;;;5044453;28;20241;-79
2022/09/30 09:18:57;;;;;;;0.10;0.10;;;;;;;;;;5051200;28;20195;-73
2022/09/30 09:21:28;;;;;;;0.10;0.10;;;;;;;;;;5045326;28;20237;-72
2022/09/30 09:24:00;;;;;;;0.10;0.10;;;;;;;;;;5050065;28;20193;-72
2022/09/30 09:26:27;;;;;;;0.10;0.10;;;;;;;;;;5045709;28;20438;-73
2022/09/30 09:29:03;;;;;;;0.10;0.10;;;;;;;;;;5049737;28;20283;-73
2022/09/30 09:31:29;;;;;;;0.10;0.10;;;;;;;;;;5046165;28;20292;-73
2022/09/30 09:33:59;;;;;;;0.00;0.00;;;;;;;;;;5049727;28;20534;-73
2022/09/30 09:36:33;;;;;;;0.10;0.10;;;;;;;;;;5045035;28;20242;-72
2022/09/30 09:39:07;;;;;;;0.10;0.10;;;;;;;;;;5049206;28;20203;-76
2022/09/30 09:41:39;;;;;;;0.10;0.10;;;;;;;;;;5036614;28;20542;-76
2022/09/30 09:44:10;;;;;;;0.10;0.10;;;;;;;;;;5048763;28;20410;-77
2022/09/30 09:46:40;;;;;;;0.10;0.10;;;;;;;;;;5046612;28;20249;-76
2022/09/30 09:49:29;;;;;;;0.10;0.10;;;;;;;;;;5047929;28;20266;-77
2022/09/30 09:52:04;;;;;;;0.10;0.10;;;;;;;;;;5046950;28;20243;-76
2022/09/30 09:54:34;;;;;;;0.10;0.10;;;;;;;;;;5044718;28;20395;-76
2022/09/30 09:57:08;;;;;;;0.05;0.05;;;;;;;;;;5049503;28;20480;-77
2022/09/30 09:59:34;;;;;;;0.10;0.10;;;;;;;;;;5044411;28;20305;-77
2022/09/30 10:02:01;;;;;;;0.10;0.10;;;;;;;;;;5049197;28;20249;-77
2022/09/30 10:04:29;;;;;;;0.10;0.10;;;;;;;;;;5044975;28;20213;-70
2022/09/30 10:06:58;;;;;;;0.10;0.10;;;;;;;;;;5048690;28;20252;-70
2022/09/30 10:09:26;;;;;;;0.10;0.10;;;;;;;;;;5045607;28;20208;-70
2022/09/30 10:12:16;;;;;;;0.10;0.10;;;;;;;;;;5047492;28;20240;-69
2022/09/30 10:14:48;;;;;;;0.10;0.10;;;;;;;;;;5044207;28;20235;-70
2022/09/30 10:17:18;;;;;;;0.10;0.10;;;;;;;;;;5049788;28;20246;-70
2022/09/30 10:19:49;;;;;;;0.10;0.10;;;;;;;;;;5044448;28;20208;-70
2022/09/30 10:22:20;;;;;;;0.10;0.10;;;;;;;;;;5049526;28;20244;-70
2022/09/30 10:24:46;;;;;;;0.10;0.10;;;;;;;;;;5044229;28;20395;-70
2022/09/30 10:27:27;;;;;;;0.10;0.10;;;;;;;;;;5049388;28;20242;-70
2022/09/30 10:29:54;;;;;;;0.10;0.10;;;;;;;;;;5044065;28;20244;-70
2022/09/30 10:32:21;;;;;;;0.10;0.10;;;;;;;;;;5049496;28;20302;-71
2022/09/30 10:34:53;;;;;;;0.10;0.10;;;;;;;;;;5043809;28;20279;-70
2022/09/30 10:37:21;;;;;;;0.05;0.05;;;;;;;;;;5049427;28;20243;-70
2022/09/30 10:39:52;;;;;;;0.10;0.10;;;;;;;;;;5044012;28;20322;-71
2022/09/30 10:42:20;;;;;;;0.10;0.10;;;;;;;;;;5049179;28;20240;-70
2022/09/30 10:44:49;;;;;;;0.10;0.10;;;;;;;;;;5043636;28;20210;-70
2022/09/30 10:47:18;;;;;;;0.05;0.05;;;;;;;;;;5048717;28;20249;-69
2022/09/30 10:49:46;;;;;;;0.00;0.00;;;;;;;;;;5043849;28;20242;-69
2022/09/30 10:52:18;;;;;;;0.10;0.10;;;;;;;;;;5048876;28;20244;-70
2022/09/30 10:54:48;;;;;;;0.10;0.10;;;;;;;;;;5043605;28;20199;-70
2022/09/30 10:57:16;;;;;;;0.10;0.10;;;;;;;;;;5048837;28;20377;-71
2022/09/30 10:59:46;;;;;;;0.10;0.10;;;;;;;;;;5043364;28;20305;-70
2022/09/30 11:02:24;;;;;;;0.10;0.10;;;;;;;;;;5048527;28;20245;-70
2022/09/30 11:04:54;;;;;;;0.00;0.00;;;;;;;;;;5042788;28;20324;-70
2022/09/30 11:07:26;;;;;;;0.00;0.00;;;;;;;;;;5048790;28;20242;-72
2022/09/30 11:09:54;;;;;;;0.10;0.10;;;;;;;;;;5043114;28;20200;-77
2022/09/30 11:12:24;;;;;;;0.05;0.05;;;;;;;;;;5048380;28;20246;-77
2022/09/30 11:14:53;;;;;;;0.00;0.00;;;;;;;;;;5043278;28;20200;-79
2022/09/30 11:17:27;;;;;;;0.05;0.05;;;;;;;;;;5048199;28;20249;-77
2022/09/30 11:19:59;;;;;;;0.00;0.00;;;;;;;;;;5043618;28;20202;-78
2022/09/30 11:22:34;;;;;;;0.10;0.10;;;;;;;;;;5048338;28;20308;-78
2022/09/30 11:25:00;;;;;;;0.10;0.10;;;;;;;;;;5043594;28;20257;-67
2022/09/30 11:27:30;;;;;;;0.00;0.00;;;;;;;;;;5048245;28;20249;-67
2022/09/30 11:30:01;;;;;;;0.00;0.00;;;;;;;;;;5043036;28;20207;-77
2022/09/30 11:32:33;;;;;;;0.10;0.10;;;;;;;;;;5048621;28;20479;-73
2022/09/30 11:35:05;;;;;;;0.00;0.00;;;;;;;;;;5043409;28;20224;-71
2022/09/30 11:37:36;;;;;;;0.03;0.03;;;;;;;;;;5048266;28;20242;-69
2022/09/30 11:40:13;;;;;;;0.00;0.00;;;;;;;;;;5043610;28;20230;-70
2022/09/30 11:42:42;;;;;;;0.10;0.10;;;;;;;;;;5042830;28;20204;-71
2022/09/30 11:45:12;;;;;;;0.00;0.00;;;;;;;;;;5033275;28;20273;-72
2022/09/30 11:47:52;;;;;;;0.00;0.00;;;;;;;;;;5057542;28;20194;-72
2022/09/30 11:50:32;;;;;;;0.05;0.05;;;;;;;;;;5034577;28;20375;-71
2022/09/30 11:53:03;;;;;;;0.00;0.00;;;;;;;;;;5054916;28;20274;-71
2022/09/30 11:55:35;;;;;;;0.00;0.00;;;;;;;;;;5035734;28;21029;-71
2022/09/30 11:58:03;;;;;;;0.00;0.00;;;;;;;;;;5054104;28;20324;-71
2022/09/30 12:00:35;;;;;;;0.10;0.10;;;;;;;;;;5035165;28;20269;-71
2022/09/30 12:03:07;;;;;;;0.10;0.10;;;;;;;;;;5054372;28;20210;-72
2022/09/30 12:05:37;;;;;;;0.10;0.10;;;;;;;;;;5036228;28;20275;-71
2022/09/30 12:08:06;;;;;;;0.10;0.10;;;;;;;;;;5054184;28;20232;-71
2022/09/30 12:10:34;;;;;;;0.10;0.10;;;;;;;;;;5035860;28;20447;-71
2022/09/30 12:13:03;;;;;;;0.00;0.00;;;;;;;;;;5053944;28;20288;-72
2022/09/30 12:15:30;;;;;;;0.00;0.00;;;;;;;;;;5035571;28;20267;-75
2022/09/30 12:17:59;;;;;;;0.00;0.00;;;;;;;;;;5058192;28;20275;-75
2022/09/30 12:20:29;;;;;;;0.00;0.00;;;;;;;;;;5039014;28;20250;-76
2022/09/30 12:22:59;;;;;;;0.10;0.10;;;;;;;;;;5058979;28;20194;-76
2022/09/30 12:25:28;;;;;;;0.10;0.10;;;;;;;;;;5039521;28;20243;-76
2022/09/30 12:27:56;;;;;;;0.00;0.00;;;;;;;;;;5058760;28;20205;-73
2022/09/30 12:30:22;;;;;;;0.10;0.10;;;;;;;;;;5038233;28;20233;-73
2022/09/30 12:33:09;;;;;;;0.10;0.10;;;;;;;;;;5059327;28;20193;-74
2022/09/30 12:35:51;;;;;;;0.10;0.10;;;;;;;;;;5039784;28;20240;-70
2022/09/30 12:38:28;;;;;;;0.10;0.10;;;;;;;;;;5056038;28;20213;-69
2022/09/30 12:41:01;;;;;;;0.10;0.10;;;;;;;;;;5042311;28;20584;-71
2022/09/30 12:43:43;;;;;;;0.05;0.05;;;;;;;;;;5054402;28;20269;-73
2022/09/30 12:46:14;;;;;;;0.03;0.03;;;;;;;;;;5044130;28;20305;-69
2022/09/30 12:48:42;;;;;;;0.10;0.10;;;;;;;;;;5052819;28;20387;-70
2022/09/30 12:51:12;;;;;;;0.10;0.10;;;;;;;;;;5043982;28;20289;-68
2022/09/30 12:53:39;;;;;;;0.00;0.00;;;;;;;;;;5052962;28;20208;-78
2022/09/30 12:56:06;;;;;;;0.10;0.10;;;;;;;;;;5043436;28;20407;-77
2022/09/30 12:58:35;;;;;;;0.10;0.10;;;;;;;;;;5053147;28;20283;-68
2022/09/30 13:01:04;;;;;;;0.10;0.10;;;;;;;;;;5042598;28;20359;-67
2022/09/30 13:03:43;;;;;;;0.10;0.10;;;;;;;;;;5053637;28;20284;-67
2022/09/30 13:06:11;;;;;;;0.08;0.08;;;;;;;;;;5043606;28;20290;-67
2022/09/30 13:08:43;;;;;;;0.10;0.10;;;;;;;;;;5052523;28;20215;-66
2022/09/30 13:11:30;;;;;;;0.10;0.10;;;;;;;;;;5041370;28;20512;-78
2022/09/30 13:13:59;;;;;;;0.00;0.00;;;;;;;;;;5050617;28;20245;-70
2022/09/30 13:16:41;;;;;;;0.10;0.10;;;;;;;;;;5045632;28;20247;-70
2022/09/30 13:19:19;;;;;;;0.10;0.10;;;;;;;;;;5048578;28;20275;-71
2022/09/30 13:21:47;;;;;;;0.00;0.00;;;;;;;;;;5048256;28;20242;-71
2022/09/30 13:24:15;;;;;;;0.05;0.05;;;;;;;;;;5047966;28;20233;-71
2022/09/30 13:26:47;;;;;;;0.10;0.10;;;;;;;;;;5047571;28;20307;-71
2022/09/30 13:29:38;;;;;;;0.10;0.10;;;;;;;;;;5047011;28;20227;-74
2022/09/30 13:32:10;;;;;;;0.10;0.10;;;;;;;;;;5050494;28;20245;-73
2022/09/30 13:34:56;;;;;;;0.10;0.10;;;;;;;;;;5045609;28;20211;-72
2022/09/30 13:37:33;;;;;;;0.08;0.08;;;;;;;;;;5050478;28;20408;-74
2022/09/30 13:40:01;;;;;;;0.10;0.10;;;;;;;;;;5045819;28;20216;-74
2022/09/30 13:42:28;;;;;;;0.10;0.10;;;;;;;;;;5050610;28;20261;-70
2022/09/30 13:45:00;;;;;;;0.10;0.10;;;;;;;;;;5045767;28;20205;-71
2022/09/30 13:47:29;;;;;;;0.10;0.10;;;;;;;;;;5050706;28;20559;-71
2022/09/30 13:49:57;;;;;;;0.00;0.00;;;;;;;;;;5045091;28;20205;-66
2022/09/30 13:52:26;;;;;;;0.10;0.10;;;;;;;;;;5049900;28;20247;-67
2022/09/30 13:54:56;;;;;;;0.10;0.10;;;;;;;;;;5045073;28;20207;-66
2022/09/30 13:57:25;;;;;;;0.10;0.10;;;;;;;;;;5050053;28;20240;-67
2022/09/30 13:59:55;;;;;;;0.10;0.10;;;;;;;;;;5044551;28;20628;-67
2022/09/30 14:02:40;;;;;;;0.00;0.00;;;;;;;;;;5049846;28;20315;-65
2022/09/30 14:05:21;;;;;;;0.10;0.10;;;;;;;;;;5023972;28;20211;-67
2022/09/30 14:07:54;;;;;;;0.10;0.10;;;;;;;;;;5057441;28;20193;-66
2022/09/30 14:10:29;;;;;;;0.08;0.08;;;;;;;;;;5036419;28;20365;-65
2022/09/30 14:13:04;;;;;;;0.00;0.00;;;;;;;;;;5056550;28;20214;-67
2022/09/30 14:15:45;;;;;;;0.03;0.03;;;;;;;;;;5037186;28;20239;-66
2022/09/30 14:18:37;;;;;;;0.10;0.10;;;;;;;;;;5054884;28;20224;-66
2022/09/30 14:21:20;;;;;;;0.05;0.05;;;;;;;;;;5041658;28;20446;-66
2022/09/30 14:23:46;;;;;;;0.03;0.03;;;;;;;;;;5047746;28;20206;-67
2022/09/30 14:26:28;;;;;;;0.00;0.00;;;;;;;;;;5042595;28;20258;-66
2022/09/30 14:28:58;;;;;;;0.10;0.10;;;;;;;;;;5048838;28;20316;-66
2022/09/30 14:31:25;;;;;;;0.10;0.10;;;;;;;;;;5044054;28;20443;-66
2022/09/30 14:33:51;;;;;;;0.10;0.10;;;;;;;;;;5049226;28;20512;-66
2022/09/30 14:36:20;;;;;;;0.10;0.10;;;;;;;;;;5042921;28;20240;-66
2022/09/30 14:38:48;;;;;;;0.08;0.08;;;;;;;;;;5049360;28;20224;-67
2022/09/30 14:41:17;;;;;;;0.03;0.03;;;;;;;;;;5041741;28;20244;-66
2022/09/30 14:43:45;;;;;;;0.10;0.10;;;;;;;;;;5049942;28;20491;-65
2022/09/30 14:46:15;;;;;;;0.10;0.10;;;;;;;;;;5042011;28;20239;-65
2022/09/30 14:48:43;;;;;;;0.10;0.10;;;;;;;;;;5050078;28;20204;-66
2022/09/30 14:51:10;;;;;;;0.10;0.10;;;;;;;;;;5041151;28;20309;-66
2022/09/30 14:53:39;;;;;;;0.08;0.08;;;;;;;;;;5051123;28;20210;-66
2022/09/30 14:56:19;;;;;;;0.10;0.10;;;;;;;;;;5040866;28;20308;-66
2022/09/30 14:58:51;;;;;;;0.00;0.00;;;;;;;;;;5049553;28;20231;-66